Time;durP1;ratioP1;P1;durP2;ratioP2;P2;SDS_P1;SDS_P2;PMS_P1;PMS_P2;Temp;Humidity;BMP_temperature;BMP_pressure;BME280_temperature;BME280_humidity;BME280_pressure;Samples;Min_cycle;Max_cycle;Signal;HPM_P1;HPM_P2
2023/03/07 00:00:20;;;;;;;5.10;1.30;;;29.30;91.70;;;;;;5099302;28;20203;-78
2023/03/07 00:02:54;;;;;;;4.97;1.40;;;29.30;90.30;;;;;;5107604;28;20692;-77
2023/03/07 00:05:27;;;;;;;6.30;1.40;;;29.40;87.70;;;;;;5101692;28;20188;-78
2023/03/07 00:07:58;;;;;;;5.80;1.08;;;29.40;84.10;;;;;;5093998;28;20195;-77
2023/03/07 00:10:29;;;;;;;4.63;1.30;;;29.40;84.60;;;;;;5095221;28;20199;-77
2023/03/07 00:13:01;;;;;;;3.08;1.20;;;29.40;85.40;;;;;;5108837;28;20202;-77
2023/03/07 00:15:32;;;;;;;7.47;1.52;;;29.40;82.80;;;;;;5103460;27;20205;-77
2023/03/07 00:18:03;;;;;;;8.63;1.45;;;29.40;81.20;;;;;;5092820;28;20225;-76
2023/03/07 00:20:36;;;;;;;5.88;1.30;;;29.50;83.90;;;;;;5093160;28;20198;-77
2023/03/07 00:23:07;;;;;;;7.72;1.83;;;29.60;83.20;;;;;;5099669;28;20226;-77
2023/03/07 00:25:38;;;;;;;5.38;1.67;;;29.70;81.60;;;;;;5097838;28;20322;-77
2023/03/07 00:28:09;;;;;;;6.45;1.70;;;29.70;82.30;;;;;;5094697;28;20210;-79
2023/03/07 00:30:41;;;;;;;5.10;1.90;;;29.80;80.90;;;;;;5093047;28;20202;-76
2023/03/07 00:33:12;;;;;;;4.13;1.45;;;29.90;80.90;;;;;;5099874;28;20270;-77
2023/03/07 00:35:48;;;;;;;6.47;1.90;;;30.00;80.30;;;;;;5113583;28;20685;-78
2023/03/07 00:38:19;;;;;;;3.47;1.23;;;30.00;78.50;;;;;;5094240;28;20688;-78
2023/03/07 00:40:58;;;;;;;3.50;1.27;;;30.00;79.00;;;;;;5093559;28;20546;-78
2023/03/07 00:43:29;;;;;;;4.40;1.10;;;30.10;79.50;;;;;;5109120;28;20218;-76
2023/03/07 00:46:01;;;;;;;9.18;1.42;;;30.10;79.00;;;;;;5105155;28;20654;-78
2023/03/07 00:48:34;;;;;;;3.05;1.27;;;30.20;75.30;;;;;;5092638;28;20657;-78
2023/03/07 00:51:10;;;;;;;4.85;1.30;;;30.00;75.70;;;;;;5102330;27;20199;-76
2023/03/07 00:53:42;;;;;;;3.33;1.15;;;29.90;74.60;;;;;;5100754;28;20186;-78
2023/03/07 00:56:16;;;;;;;5.10;1.38;;;29.90;77.00;;;;;;5095459;28;20222;-78
2023/03/07 00:58:48;;;;;;;7.10;1.20;;;29.90;77.60;;;;;;5101573;28;20199;-77
2023/03/07 01:01:21;;;;;;;3.75;1.10;;;29.80;77.50;;;;;;5092239;28;20206;-78
2023/03/07 01:03:54;;;;;;;8.30;1.70;;;29.90;75.00;;;;;;5096711;28;20307;-77
2023/03/07 01:06:29;;;;;;;2.47;1.13;;;29.90;74.90;;;;;;5109757;28;20598;-78
2023/03/07 01:09:02;;;;;;;2.95;0.82;;;29.80;76.00;;;;;;5098576;28;20780;-77
2023/03/07 01:11:33;;;;;;;5.53;1.33;;;29.90;76.60;;;;;;5092627;28;20203;-78
2023/03/07 01:14:06;;;;;;;3.67;1.15;;;30.00;75.70;;;;;;5091980;28;20283;-77
2023/03/07 01:16:39;;;;;;;2.65;1.10;;;30.10;76.00;;;;;;5106903;28;20301;-77
2023/03/07 01:19:12;;;;;;;4.13;1.05;;;30.20;76.70;;;;;;5098877;28;20187;-79
2023/03/07 01:21:46;;;;;;;4.75;1.35;;;30.30;77.70;;;;;;5091345;28;20230;-77
2023/03/07 01:24:18;;;;;;;8.52;1.33;;;30.50;74.70;;;;;;5102736;28;20250;-78
2023/03/07 01:26:49;;;;;;;8.77;1.48;;;30.60;71.60;;;;;;5106097;28;20785;-78
2023/03/07 01:29:20;;;;;;;9.10;1.40;;;30.70;71.40;;;;;;5103998;28;20194;-77
2023/03/07 01:31:51;;;;;;;5.30;1.00;;;30.80;70.50;;;;;;5105039;28;20199;-77
2023/03/07 01:34:24;;;;;;;1.73;1.00;;;30.90;68.90;;;;;;5091688;28;20191;-77
2023/03/07 01:36:57;;;;;;;5.90;1.00;;;30.90;66.20;;;;;;5102322;28;20239;-76
2023/03/07 01:39:28;;;;;;;3.88;1.17;;;31.10;68.00;;;;;;5098781;28;20558;-77
2023/03/07 01:41:59;;;;;;;5.05;0.93;;;31.20;65.60;;;;;;5110674;27;20205;-78
2023/03/07 01:44:30;;;;;;;2.28;0.90;;;31.20;61.90;;;;;;5101039;27;22333;-77
2023/03/07 01:47:02;;;;;;;4.75;1.00;;;31.30;63.90;;;;;;5095386;28;20195;-78
2023/03/07 01:49:35;;;;;;;4.25;1.08;;;31.40;61.10;;;;;;5101563;28;20190;-77
2023/03/07 01:52:11;;;;;;;2.85;0.93;;;31.50;61.00;;;;;;5112792;27;20676;-78
2023/03/07 01:54:47;;;;;;;5.60;1.05;;;31.60;64.00;;;;;;5107621;28;20224;-77
2023/03/07 01:57:21;;;;;;;3.65;0.80;;;31.80;61.70;;;;;;5110402;28;20611;-79
2023/03/07 01:59:56;;;;;;;2.25;0.80;;;31.80;60.00;;;;;;5091390;28;20198;-77
2023/03/07 02:02:28;;;;;;;3.55;1.05;;;32.00;58.60;;;;;;5110860;28;20204;-78
2023/03/07 02:05:03;;;;;;;7.53;0.98;;;32.10;59.60;;;;;;5107875;28;20202;-77
2023/03/07 02:07:39;;;;;;;3.15;1.10;;;32.20;59.00;;;;;;5112415;28;20198;-78
2023/03/07 02:10:12;;;;;;;3.25;1.20;;;32.40;58.60;;;;;;5092375;28;20195;-76
2023/03/07 02:12:44;;;;;;;2.30;0.70;;;32.50;58.00;;;;;;5099278;28;20195;-77
2023/03/07 02:15:17;;;;;;;3.22;0.88;;;32.60;55.70;;;;;;5101205;28;20214;-77
2023/03/07 02:17:49;;;;;;;5.38;0.95;;;32.60;55.00;;;;;;5094720;27;20218;-77
2023/03/07 02:20:31;;;;;;;4.20;1.00;;;32.70;56.70;;;;;;5092115;28;20203;-77
2023/03/07 02:23:12;;;;;;;5.10;0.98;;;32.80;54.20;;;;;;5102099;27;20328;-76
2023/03/07 02:25:50;;;;;;;3.33;0.90;;;32.90;53.90;;;;;;5095711;28;20486;-77
2023/03/07 02:28:24;;;;;;;2.80;1.00;;;32.90;52.80;;;;;;5111061;28;20754;-76
2023/03/07 02:30:59;;;;;;;4.32;0.90;;;32.90;52.90;;;;;;5101847;28;20206;-77
2023/03/07 02:33:30;;;;;;;4.13;0.90;;;33.00;53.30;;;;;;5111640;28;20194;-77
2023/03/07 02:36:05;;;;;;;4.53;0.88;;;33.10;52.70;;;;;;5110322;28;20194;-77
2023/03/07 02:38:38;;;;;;;3.10;0.70;;;33.10;51.90;;;;;;5111201;28;20243;-77
2023/03/07 02:41:12;;;;;;;12.05;1.15;;;33.20;51.70;;;;;;5110222;28;20267;-76
2023/03/07 02:43:46;;;;;;;2.20;0.73;;;33.20;51.80;;;;;;5113177;28;20236;-76
2023/03/07 02:46:17;;;;;;;1.70;0.57;;;33.10;51.60;;;;;;5104336;28;20286;-76
2023/03/07 02:48:48;;;;;;;2.25;0.70;;;33.20;50.70;;;;;;5090210;28;20191;-76
2023/03/07 02:51:19;;;;;;;2.58;0.90;;;33.30;49.20;;;;;;5091651;28;20302;-77
2023/03/07 02:53:51;;;;;;;2.45;0.70;;;33.30;47.60;;;;;;5095655;28;20194;-76
2023/03/07 02:56:22;;;;;;;2.13;0.70;;;33.40;48.40;;;;;;5101345;28;20248;-77
2023/03/07 02:58:55;;;;;;;1.70;0.60;;;33.60;49.40;;;;;;5091295;28;20199;-77
2023/03/07 03:01:26;;;;;;;3.47;1.08;;;33.70;48.30;;;;;;5104945;28;20560;-76
2023/03/07 03:03:57;;;;;;;1.88;0.60;;;33.80;46.30;;;;;;5099793;28;20222;-76
2023/03/07 03:06:28;;;;;;;1.10;0.60;;;33.80;46.10;;;;;;5090504;28;20202;-76
2023/03/07 03:08:59;;;;;;;5.68;0.98;;;33.90;45.70;;;;;;5094083;28;21513;-77
2023/03/07 03:11:31;;;;;;;1.20;0.60;;;34.00;45.60;;;;;;5091269;28;20202;-76
2023/03/07 03:14:04;;;;;;;2.47;0.80;;;34.00;45.50;;;;;;5090184;28;20203;-77
2023/03/07 03:16:35;;;;;;;3.40;0.70;;;34.10;43.60;;;;;;5112542;28;20229;-77
2023/03/07 03:19:06;;;;;;;5.60;0.70;;;34.10;42.70;;;;;;5114154;28;20200;-76
2023/03/07 03:21:37;;;;;;;2.88;0.60;;;34.10;41.60;;;;;;5096978;27;20191;-78
2023/03/07 03:24:14;;;;;;;2.40;0.80;;;34.20;41.80;;;;;;5097510;28;20214;-78
2023/03/07 03:26:45;;;;;;;3.85;1.10;;;34.30;42.70;;;;;;5107059;28;20339;-79
2023/03/07 03:29:18;;;;;;;11.10;1.52;;;34.30;49.60;;;;;;5107136;28;20191;-78
2023/03/07 03:31:49;;;;;;;7.30;1.60;;;33.90;64.90;;;;;;5096428;28;20203;-77
2023/03/07 03:34:21;;;;;;;5.50;1.42;;;33.70;70.00;;;;;;5106009;28;20206;-77
2023/03/07 03:36:52;;;;;;;5.20;1.30;;;33.50;71.20;;;;;;5108281;28;20202;-78
2023/03/07 03:39:23;;;;;;;7.40;1.52;;;33.30;69.70;;;;;;5100592;28;20675;-79
2023/03/07 03:41:55;;;;;;;2.65;1.10;;;33.20;71.30;;;;;;5106434;28;20282;-79
2023/03/07 03:44:28;;;;;;;6.15;1.50;;;32.80;72.80;;;;;;5104818;28;20239;-77
2023/03/07 03:47:00;;;;;;;4.25;1.10;;;32.60;74.40;;;;;;5118321;28;20202;-79
2023/03/07 03:49:31;;;;;;;3.85;1.23;;;32.30;75.50;;;;;;5113266;28;20205;-78
2023/03/07 03:52:03;;;;;;;5.88;1.30;;;32.00;75.90;;;;;;5111464;28;20649;-78
2023/03/07 03:54:35;;;;;;;6.72;1.42;;;31.80;79.00;;;;;;5108506;28;20194;-78
2023/03/07 03:57:06;;;;;;;3.35;1.00;;;31.60;78.40;;;;;;5115892;28;20229;-79
2023/03/07 03:59:39;;;;;;;4.57;1.05;;;31.40;77.80;;;;;;5104609;28;20249;-78
2023/03/07 04:02:10;;;;;;;3.55;1.08;;;31.40;77.90;;;;;;5098625;28;20564;-78
2023/03/07 04:04:42;;;;;;;4.10;1.15;;;31.10;80.20;;;;;;5107064;28;20224;-79
2023/03/07 04:07:13;;;;;;;4.60;1.15;;;31.00;82.20;;;;;;5113832;28;20198;-78
2023/03/07 04:09:44;;;;;;;3.00;0.80;;;30.80;83.00;;;;;;5097219;28;20199;-78
2023/03/07 04:12:15;;;;;;;2.50;1.00;;;30.80;84.20;;;;;;5094430;28;20207;-79
2023/03/07 04:14:48;;;;;;;5.85;1.08;;;30.80;85.90;;;;;;5104488;28;20270;-79
2023/03/07 04:17:19;;;;;;;4.35;1.00;;;30.70;85.70;;;;;;5105582;28;20282;-79
2023/03/07 04:19:50;;;;;;;3.20;0.98;;;30.70;87.50;;;;;;5103071;28;20209;-78
2023/03/07 04:22:21;;;;;;;3.30;1.08;;;30.70;88.80;;;;;;5108555;28;20211;-78
2023/03/07 04:24:52;;;;;;;7.55;1.23;;;30.70;89.80;;;;;;5097900;28;20215;-78
2023/03/07 04:27:24;;;;;;;3.80;1.05;;;30.60;90.40;;;;;;5112458;28;20199;-79
2023/03/07 04:29:57;;;;;;;5.00;1.00;;;30.40;90.70;;;;;;5092779;28;20569;-78
2023/03/07 04:32:28;;;;;;;4.97;0.90;;;30.40;90.00;;;;;;5093749;28;20211;-78
2023/03/07 04:34:59;;;;;;;3.30;1.10;;;30.30;84.60;;;;;;5105680;28;20582;-79
2023/03/07 04:37:31;;;;;;;4.85;1.13;;;30.20;83.00;;;;;;5108546;28;20194;-79
2023/03/07 04:40:02;;;;;;;5.53;1.00;;;30.20;82.70;;;;;;5100111;28;20199;-78
2023/03/07 04:42:33;;;;;;;6.07;1.00;;;30.20;84.00;;;;;;5099039;28;20297;-78
2023/03/07 04:45:07;;;;;;;4.07;1.13;;;30.30;85.20;;;;;;5110826;28;20233;-78
2023/03/07 04:47:38;;;;;;;2.80;0.93;;;30.30;87.00;;;;;;5098246;28;20219;-78
2023/03/07 04:50:10;;;;;;;3.20;1.00;;;30.20;85.80;;;;;;5097427;28;20206;-78
2023/03/07 04:52:41;;;;;;;4.63;0.98;;;30.20;85.30;;;;;;5097280;28;20183;-77
2023/03/07 04:55:15;;;;;;;5.80;1.08;;;30.30;84.90;;;;;;5095759;28;20203;-78
2023/03/07 04:57:46;;;;;;;3.50;1.40;;;30.20;83.80;;;;;;5112901;28;20198;-79
2023/03/07 05:00:20;;;;;;;2.38;0.90;;;30.00;84.90;;;;;;5107275;27;20195;-79
2023/03/07 05:02:51;;;;;;;5.15;1.23;;;29.90;86.70;;;;;;5094654;28;20666;-78
2023/03/07 05:05:22;;;;;;;6.80;1.10;;;30.00;87.70;;;;;;5105309;28;20222;-78
2023/03/07 05:07:53;;;;;;;6.50;1.17;;;30.00;89.10;;;;;;5099014;28;20203;-77
2023/03/07 05:10:25;;;;;;;3.40;1.00;;;30.00;90.40;;;;;;5094638;28;20190;-78
2023/03/07 05:12:56;;;;;;;5.10;1.00;;;30.00;91.20;;;;;;5104460;28;20203;-78
2023/03/07 05:15:29;;;;;;;4.55;1.25;;;29.90;90.30;;;;;;5104875;28;20197;-78
2023/03/07 05:18:00;;;;;;;4.90;1.20;;;30.00;90.70;;;;;;5113040;28;20217;-78
2023/03/07 05:20:32;;;;;;;2.28;1.00;;;30.10;91.20;;;;;;5096278;28;20284;-79
2023/03/07 05:23:03;;;;;;;4.55;1.10;;;30.10;90.90;;;;;;5093802;28;20267;-78
2023/03/07 05:25:34;;;;;;;3.55;0.93;;;30.20;90.70;;;;;;5095153;28;20603;-78
2023/03/07 05:28:06;;;;;;;3.97;1.30;;;30.40;90.90;;;;;;5094890;28;20199;-79
2023/03/07 05:30:39;;;;;;;6.43;1.20;;;30.50;91.70;;;;;;5110928;28;20282;-78
2023/03/07 05:33:10;;;;;;;4.97;1.00;;;30.60;91.90;;;;;;5115644;28;20205;-78
2023/03/07 05:35:41;;;;;;;4.15;1.08;;;30.70;91.80;;;;;;5094890;28;20298;-77
2023/03/07 05:38:12;;;;;;;4.05;0.90;;;30.80;91.40;;;;;;5110833;28;20614;-79
2023/03/07 05:40:44;;;;;;;4.40;1.23;;;30.80;91.30;;;;;;5091525;28;20658;-78
2023/03/07 05:43:15;;;;;;;5.45;0.90;;;30.80;91.80;;;;;;5110108;28;20824;-79
2023/03/07 05:45:48;;;;;;;3.97;1.10;;;30.90;90.50;;;;;;5099608;27;20696;-78
2023/03/07 05:48:20;;;;;;;3.97;0.98;;;30.90;89.80;;;;;;5102738;28;20195;-78
2023/03/07 05:50:53;;;;;;;5.70;1.23;;;31.00;87.30;;;;;;5112512;28;20255;-78
2023/03/07 05:53:25;;;;;;;4.65;1.10;;;30.90;88.50;;;;;;5097939;28;20279;-78
2023/03/07 05:55:56;;;;;;;3.40;0.90;;;30.90;88.00;;;;;;5108500;28;20206;-78
2023/03/07 05:58:28;;;;;;;4.20;1.00;;;30.80;88.90;;;;;;5090574;28;20191;-77
2023/03/07 06:01:03;;;;;;;3.92;0.85;;;30.90;87.90;;;;;;5099662;28;20275;-78
2023/03/07 06:03:37;;;;;;;3.72;0.95;;;31.00;86.30;;;;;;5101478;28;20191;-78
2023/03/07 06:06:11;;;;;;;4.97;1.00;;;31.10;86.30;;;;;;5093384;28;20331;-77
2023/03/07 06:08:42;;;;;;;5.63;1.10;;;31.20;85.30;;;;;;5093530;28;20195;-78
2023/03/07 06:11:13;;;;;;;3.03;1.00;;;31.20;85.30;;;;;;5096361;28;20197;-77
2023/03/07 06:13:44;;;;;;;4.75;1.00;;;31.30;85.40;;;;;;5112835;27;20194;-76
2023/03/07 06:16:20;;;;;;;4.47;1.10;;;31.50;84.10;;;;;;5111465;28;20194;-78
2023/03/07 06:18:52;;;;;;;3.33;0.80;;;31.70;83.80;;;;;;5103702;28;20210;-78
2023/03/07 06:21:23;;;;;;;3.17;1.00;;;31.90;84.30;;;;;;5115394;28;20213;-76
2023/03/07 06:23:54;;;;;;;4.88;1.05;;;32.10;82.10;;;;;;5111773;28;20679;-77
2023/03/07 06:26:25;;;;;;;7.63;1.20;;;32.30;80.30;;;;;;5093645;28;20616;-77
2023/03/07 06:28:56;;;;;;;3.60;1.00;;;32.40;81.10;;;;;;5094924;28;20194;-77
2023/03/07 06:31:30;;;;;;;4.43;0.90;;;32.40;80.30;;;;;;5103797;28;20198;-77
2023/03/07 06:34:01;;;;;;;4.50;1.05;;;32.60;80.40;;;;;;5100993;28;20198;-77
2023/03/07 06:36:32;;;;;;;3.58;1.30;;;32.90;79.50;;;;;;5104255;28;20198;-77
2023/03/07 06:39:03;;;;;;;4.43;1.15;;;33.00;78.00;;;;;;5097244;28;20194;-77
2023/03/07 06:41:34;;;;;;;5.60;1.27;;;33.00;76.80;;;;;;5109973;28;20641;-78
2023/03/07 06:44:06;;;;;;;4.85;1.30;;;33.00;77.30;;;;;;5104551;28;20206;-78
2023/03/07 06:46:40;;;;;;;5.57;1.25;;;33.10;77.80;;;;;;5104365;28;20217;-78
2023/03/07 06:49:11;;;;;;;10.20;1.50;;;33.20;77.80;;;;;;5122402;28;20293;-78
2023/03/07 06:51:42;;;;;;;5.05;1.30;;;33.30;78.80;;;;;;5107254;28;20274;-78
2023/03/07 06:54:13;;;;;;;5.57;1.30;;;33.50;79.70;;;;;;5097863;28;20194;-78
2023/03/07 06:56:44;;;;;;;6.43;1.50;;;33.40;79.80;;;;;;5095188;28;20187;-78
2023/03/07 06:59:15;;;;;;;5.70;1.45;;;33.50;80.60;;;;;;5094006;28;20666;-78
2023/03/07 07:01:49;;;;;;;6.20;1.52;;;33.40;82.30;;;;;;5097582;28;20191;-78
2023/03/07 07:04:20;;;;;;;6.15;1.30;;;33.50;83.40;;;;;;5102791;28;20199;-78
2023/03/07 07:06:51;;;;;;;8.40;1.50;;;33.70;83.90;;;;;;5090783;28;20700;-79
2023/03/07 07:09:23;;;;;;;9.90;1.33;;;33.80;84.80;;;;;;5094217;28;20258;-78
2023/03/07 07:11:54;;;;;;;6.50;1.38;;;34.00;84.60;;;;;;5100869;28;20277;-77
2023/03/07 07:14:25;;;;;;;7.90;1.83;;;34.00;85.20;;;;;;5111108;28;20198;-78
2023/03/07 07:16:58;;;;;;;9.15;1.70;;;34.00;86.10;;;;;;5104293;28;20753;-77
2023/03/07 07:19:29;;;;;;;11.70;2.00;;;34.20;86.70;;;;;;5096322;28;20203;-77
2023/03/07 07:22:00;;;;;;;8.07;1.85;;;34.30;86.30;;;;;;5109840;28;20302;-78
2023/03/07 07:24:31;;;;;;;7.38;1.75;;;34.30;87.20;;;;;;5099264;28;20689;-78
2023/03/07 07:27:04;;;;;;;10.63;2.17;;;34.30;88.20;;;;;;5105819;28;20226;-77
2023/03/07 07:29:35;;;;;;;7.75;1.70;;;34.40;88.40;;;;;;5109971;28;20317;-78
2023/03/07 07:32:09;;;;;;;10.90;2.13;;;34.30;88.30;;;;;;5111132;28;20194;-77
2023/03/07 07:34:40;;;;;;;8.25;2.10;;;34.20;90.10;;;;;;5098616;28;20234;-78
2023/03/07 07:37:11;;;;;;;7.05;1.85;;;34.10;90.70;;;;;;5105614;28;20640;-78
2023/03/07 07:39:42;;;;;;;6.90;1.80;;;33.80;91.30;;;;;;5101909;28;20206;-78
2023/03/07 07:42:14;;;;;;;11.35;2.20;;;33.60;91.90;;;;;;5092248;28;20195;-78
2023/03/07 07:44:45;;;;;;;6.25;1.90;;;33.30;93.40;;;;;;5096644;28;20319;-77
2023/03/07 07:47:18;;;;;;;6.53;1.65;;;32.90;94.60;;;;;;5092243;28;20203;-78
2023/03/07 07:49:49;;;;;;;7.03;2.13;;;32.40;97.10;;;;;;5108441;28;20553;-78
2023/03/07 07:52:20;;;;;;;9.50;2.50;;;32.00;99.90;;;;;;5103325;28;20192;-78
2023/03/07 07:54:52;;;;;;;6.93;2.30;;;31.70;99.90;;;;;;5100433;28;20195;-78
2023/03/07 07:57:23;;;;;;;7.78;2.10;;;31.50;99.90;;;;;;5099242;28;20198;-78
2023/03/07 07:59:54;;;;;;;8.55;2.47;;;31.10;99.90;;;;;;5089599;28;20275;-79
2023/03/07 08:02:27;;;;;;;13.18;2.70;;;31.00;99.90;;;;;;5093495;28;20205;-79
2023/03/07 08:04:58;;;;;;;9.20;2.40;;;30.70;99.90;;;;;;5112884;28;20314;-80
2023/03/07 08:07:30;;;;;;;8.45;2.30;;;30.50;99.90;;;;;;5093403;28;20187;-79
2023/03/07 08:10:01;;;;;;;11.23;2.50;;;30.30;99.90;;;;;;5106001;28;20195;-78
2023/03/07 08:12:32;;;;;;;9.25;2.22;;;30.00;99.90;;;;;;5109309;28;20199;-78
2023/03/07 08:15:03;;;;;;;10.85;2.65;;;29.90;99.90;;;;;;5100528;28;20199;-77
2023/03/07 08:17:36;;;;;;;15.73;2.58;;;29.70;99.90;;;;;;5095913;28;20197;-78
2023/03/07 08:20:09;;;;;;;11.25;2.67;;;29.40;99.90;;;;;;5103172;28;20196;-78
2023/03/07 08:22:42;;;;;;;14.80;3.20;;;29.30;99.90;;;;;;5098168;28;20218;-77
2023/03/07 08:25:20;;;;;;;12.18;3.05;;;29.20;99.90;;;;;;5111197;28;20230;-78
2023/03/07 08:27:53;;;;;;;14.32;2.95;;;29.10;99.90;;;;;;5108059;28;20199;-78
2023/03/07 08:30:25;;;;;;;8.95;2.33;;;29.00;99.90;;;;;;5100092;28;20195;-78
2023/03/07 08:32:59;;;;;;;10.68;2.70;;;29.00;99.90;;;;;;5099943;28;20199;-78
2023/03/07 08:35:30;;;;;;;14.65;2.80;;;28.90;99.90;;;;;;5106363;28;20195;-77
2023/03/07 08:38:02;;;;;;;12.60;2.85;;;28.80;99.90;;;;;;5102975;28;20198;-78
2023/03/07 08:40:34;;;;;;;11.68;3.20;;;28.80;99.90;;;;;;5098474;28;20192;-78
2023/03/07 08:43:05;;;;;;;14.05;3.35;;;28.70;99.90;;;;;;5105980;28;20625;-78
2023/03/07 08:45:36;;;;;;;11.13;2.75;;;28.70;99.90;;;;;;5097456;28;20704;-78
2023/03/07 08:48:10;;;;;;;15.40;3.50;;;28.60;99.90;;;;;;5108483;28;20246;-77
2023/03/07 08:50:42;;;;;;;13.45;3.22;;;28.50;99.90;;;;;;5095260;28;20195;-77
2023/03/07 08:53:14;;;;;;;16.27;3.50;;;28.50;99.90;;;;;;5093560;28;20195;-77
2023/03/07 08:55:48;;;;;;;13.98;3.38;;;28.40;99.90;;;;;;5107684;28;20661;-77
2023/03/07 08:58:19;;;;;;;12.98;3.08;;;28.30;99.90;;;;;;5110719;28;20198;-77
2023/03/07 09:00:50;;;;;;;13.57;3.45;;;28.30;99.90;;;;;;5105988;28;20197;-77
2023/03/07 09:03:23;;;;;;;13.93;3.05;;;28.30;99.90;;;;;;5112244;28;20195;-79
2023/03/07 09:05:54;;;;;;;11.35;3.05;;;28.20;99.90;;;;;;5098235;28;20222;-77
2023/03/07 09:08:26;;;;;;;15.55;3.15;;;28.20;99.90;;;;;;5105180;28;20203;-78
2023/03/07 09:10:57;;;;;;;16.45;3.42;;;28.20;99.90;;;;;;5106773;28;20209;-79
2023/03/07 09:13:28;;;;;;;13.02;3.40;;;28.20;99.90;;;;;;5097439;28;20194;-78
2023/03/07 09:15:59;;;;;;;12.68;3.45;;;28.10;99.90;;;;;;5105645;28;20546;-77
2023/03/07 09:18:35;;;;;;;11.82;2.90;;;28.00;99.90;;;;;;5101705;28;20191;-77
2023/03/07 09:21:08;;;;;;;16.30;3.40;;;27.90;99.90;;;;;;5090464;28;20241;-77
2023/03/07 09:23:39;;;;;;;10.93;3.15;;;27.90;99.90;;;;;;5090878;28;20215;-77
2023/03/07 09:26:10;;;;;;;11.55;3.05;;;27.80;99.90;;;;;;5090841;28;20231;-77
2023/03/07 09:28:41;;;;;;;15.85;3.63;;;27.80;99.90;;;;;;5100975;28;20715;-77
2023/03/07 09:31:13;;;;;;;8.98;2.83;;;27.80;99.90;;;;;;5097013;28;20549;-76
2023/03/07 09:33:47;;;;;;;10.68;3.10;;;27.70;99.90;;;;;;5107606;28;20201;-77
2023/03/07 09:36:19;;;;;;;11.65;3.50;;;27.70;99.90;;;;;;5089641;28;20206;-77
2023/03/07 09:38:50;;;;;;;15.80;2.92;;;27.70;99.90;;;;;;5093397;28;20194;-78
2023/03/07 09:41:54;;;;;;;18.23;3.58;;;27.60;99.90;;;;;;5098413;28;20666;-78
2023/03/07 09:44:38;;;;;;;14.18;3.22;;;27.60;99.90;;;;;;5095816;28;20274;-78
2023/03/07 09:47:20;;;;;;;13.48;3.08;;;27.60;99.90;;;;;;5105961;28;20229;-78
2023/03/07 09:49:55;;;;;;;13.60;3.17;;;27.60;99.90;;;;;;5098210;28;20281;-77
2023/03/07 09:52:28;;;;;;;14.43;3.45;;;27.60;99.90;;;;;;5110190;28;20194;-79
2023/03/07 09:55:02;;;;;;;15.07;3.45;;;27.60;99.90;;;;;;5097025;28;20234;-78
2023/03/07 09:57:34;;;;;;;12.27;2.90;;;27.60;99.90;;;;;;5094580;28;20669;-78
2023/03/07 10:00:12;;;;;;;15.57;3.30;;;27.50;99.90;;;;;;5104346;28;20198;-78
2023/03/07 10:02:49;;;;;;;15.82;3.42;;;27.50;99.90;;;;;;5110284;28;20240;-79
2023/03/07 10:05:35;;;;;;;9.60;2.70;;;27.50;99.90;;;;;;5094616;28;20297;-77
2023/03/07 10:08:07;;;;;;;11.02;3.10;;;27.40;99.90;;;;;;5091977;28;20199;-77
2023/03/07 10:10:43;;;;;;;11.15;3.00;;;27.40;99.90;;;;;;5090238;28;20196;-77
2023/03/07 10:13:31;;;;;;;14.40;3.33;;;27.40;99.90;;;;;;5096230;28;20230;-77
2023/03/07 10:16:06;;;;;;;16.92;3.40;;;27.40;99.90;;;;;;5105712;28;20208;-77
2023/03/07 10:18:53;;;;;;;13.80;3.15;;;27.40;99.90;;;;;;5110504;28;20626;-78
2023/03/07 10:21:35;;;;;;;12.68;3.10;;;27.40;99.90;;;;;;5111521;28;20209;-78
2023/03/07 10:24:35;;;;;;;9.88;2.40;;;27.40;99.90;;;;;;5105238;28;20635;-79
2023/03/07 10:27:09;;;;;;;13.30;3.10;;;27.30;99.90;;;;;;5104516;28;20237;-78
2023/03/07 10:29:47;;;;;;;13.43;2.65;;;27.30;99.90;;;;;;5106859;27;20203;-78
2023/03/07 10:32:28;;;;;;;10.35;2.95;;;27.30;99.90;;;;;;5110180;28;20283;-78
2023/03/07 10:35:03;;;;;;;12.40;3.10;;;27.30;99.90;;;;;;5096029;28;20202;-78
2023/03/07 10:37:49;;;;;;;12.23;3.40;;;27.30;99.90;;;;;;5109462;28;20198;-80
2023/03/07 10:40:28;;;;;;;13.75;3.08;;;27.30;99.90;;;;;;5103878;28;20198;-78
2023/03/07 10:43:02;;;;;;;13.80;3.30;;;27.30;99.90;;;;;;5106320;28;20198;-78
2023/03/07 10:45:36;;;;;;;15.63;3.20;;;27.30;99.90;;;;;;5108853;28;20300;-78
2023/03/07 10:48:18;;;;;;;10.23;3.13;;;27.30;99.90;;;;;;5108155;28;20202;-79
2023/03/07 10:50:54;;;;;;;10.60;2.78;;;27.30;99.90;;;;;;5117713;28;20230;-77
2023/03/07 10:53:29;;;;;;;13.50;3.08;;;27.30;99.90;;;;;;5113281;28;20591;-79
2023/03/07 10:56:15;;;;;;;14.43;3.40;;;27.20;99.90;;;;;;5095085;28;20190;-77
2023/03/07 10:59:04;;;;;;;10.27;3.17;;;27.20;99.90;;;;;;5092998;28;20251;-78
2023/03/07 11:01:38;;;;;;;15.65;3.50;;;27.20;99.90;;;;;;5093962;28;20186;-77
2023/03/07 11:04:21;;;;;;;15.85;3.33;;;27.10;99.90;;;;;;5105804;28;20194;-77
2023/03/07 11:06:57;;;;;;;11.35;2.92;;;27.10;99.90;;;;;;5111875;28;20218;-78
2023/03/07 11:09:33;;;;;;;13.85;3.25;;;27.10;99.90;;;;;;5102275;28;20190;-78
2023/03/07 11:12:20;;;;;;;8.57;2.72;;;27.10;99.90;;;;;;5104297;28;20205;-77
2023/03/07 11:14:54;;;;;;;10.50;2.85;;;27.10;99.90;;;;;;5109477;28;20657;-77
2023/03/07 11:17:32;;;;;;;9.32;2.80;;;27.10;99.90;;;;;;5111734;28;20199;-77
2023/03/07 11:20:05;;;;;;;11.45;2.97;;;27.00;99.90;;;;;;5096893;28;20621;-78
2023/03/07 11:22:36;;;;;;;9.90;3.10;;;27.00;99.90;;;;;;5099365;28;20219;-78
2023/03/07 11:25:17;;;;;;;11.48;3.08;;;27.00;99.90;;;;;;5091481;28;20223;-78
2023/03/07 11:27:54;;;;;;;12.38;3.15;;;27.00;99.90;;;;;;5096264;28;20195;-78
2023/03/07 11:30:28;;;;;;;9.60;2.80;;;27.00;99.90;;;;;;5102996;28;20562;-78
2023/03/07 11:33:14;;;;;;;10.93;2.88;;;26.90;99.90;;;;;;5109589;28;20583;-75
2023/03/07 11:36:01;;;;;;;12.60;3.00;;;26.90;99.90;;;;;;5108485;28;20222;-78
2023/03/07 11:38:45;;;;;;;9.52;2.60;;;26.90;99.90;;;;;;5101888;28;20198;-76
2023/03/07 11:41:22;;;;;;;10.93;2.70;;;26.80;99.90;;;;;;5116750;28;20195;-77
2023/03/07 11:44:06;;;;;;;7.28;2.25;;;26.80;99.90;;;;;;5103592;28;20198;-77
2023/03/07 11:46:52;;;;;;;7.93;2.47;;;26.70;99.90;;;;;;5105520;28;20225;-78
2023/03/07 11:49:45;;;;;;;11.18;2.72;;;26.60;99.90;;;;;;5101294;28;20186;-77
2023/03/07 11:52:29;;;;;;;11.35;2.92;;;26.60;99.90;;;;;;5097068;28;20718;-78
2023/03/07 11:55:13;;;;;;;12.13;2.85;;;26.60;99.90;;;;;;5108542;28;20260;-78
2023/03/07 11:58:02;;;;;;;10.15;2.63;;;26.60;99.90;;;;;;5112038;28;20202;-77
2023/03/07 12:00:38;;;;;;;13.18;3.13;;;26.60;99.90;;;;;;5112545;28;20237;-77
2023/03/07 12:03:34;;;;;;;8.85;2.90;;;26.50;99.90;;;;;;5094974;28;20203;-76
2023/03/07 12:06:30;;;;;;;11.10;2.88;;;26.50;99.90;;;;;;5097846;28;20609;-78
2023/03/07 12:09:12;;;;;;;10.05;2.88;;;26.50;99.90;;;;;;5096298;28;20199;-79
2023/03/07 12:11:58;;;;;;;9.50;2.97;;;26.40;99.90;;;;;;5095970;28;20199;-77
2023/03/07 12:14:40;;;;;;;10.50;3.05;;;26.30;99.90;;;;;;5103821;28;20183;-76
2023/03/07 12:17:22;;;;;;;9.30;2.80;;;26.30;99.90;;;;;;5101467;28;20211;-78
2023/03/07 12:20:19;;;;;;;12.85;2.78;;;26.20;99.90;;;;;;5107745;28;20210;-78
2023/03/07 12:23:03;;;;;;;8.40;2.70;;;26.20;99.90;;;;;;5114103;28;20207;-78
2023/03/07 12:25:38;;;;;;;8.60;2.80;;;26.20;99.90;;;;;;5112914;28;20232;-76
2023/03/07 12:28:15;;;;;;;10.68;2.53;;;26.20;99.90;;;;;;5110590;28;20194;-78
2023/03/07 12:30:56;;;;;;;10.82;2.80;;;26.10;99.90;;;;;;5097248;28;20199;-78
2023/03/07 12:33:36;;;;;;;7.30;2.47;;;26.20;99.90;;;;;;5102507;28;20199;-78
2023/03/07 12:36:11;;;;;;;11.25;3.00;;;26.10;99.90;;;;;;5118090;28;20186;-78
2023/03/07 12:38:46;;;;;;;9.63;2.80;;;26.10;99.90;;;;;;5101589;28;20195;-78
2023/03/07 12:41:27;;;;;;;11.07;2.75;;;26.00;99.90;;;;;;5102616;28;20195;-78
2023/03/07 12:44:02;;;;;;;12.05;2.90;;;26.00;99.90;;;;;;5112639;28;20199;-77
2023/03/07 12:46:40;;;;;;;9.20;3.17;;;26.00;99.90;;;;;;5111608;28;20222;-78
2023/03/07 12:49:18;;;;;;;13.88;3.05;;;25.90;99.90;;;;;;5116284;28;20191;-79
2023/03/07 12:51:52;;;;;;;9.68;2.80;;;26.00;99.90;;;;;;5116372;28;20205;-78
2023/03/07 12:54:29;;;;;;;10.15;2.70;;;26.00;99.90;;;;;;5114373;28;20203;-79
2023/03/07 12:57:05;;;;;;;8.63;2.90;;;26.00;99.90;;;;;;5112950;27;20214;-79
2023/03/07 12:59:37;;;;;;;15.10;3.00;;;25.90;99.90;;;;;;5107918;28;20191;-79
2023/03/07 13:02:16;;;;;;;10.00;2.80;;;25.90;99.90;;;;;;5092751;28;20567;-77
2023/03/07 13:04:47;;;;;;;9.32;2.63;;;25.80;99.90;;;;;;5098737;28;20201;-79
2023/03/07 13:07:21;;;;;;;9.63;2.58;;;25.80;99.90;;;;;;5107244;28;20210;-78
2023/03/07 13:09:54;;;;;;;7.78;2.42;;;25.80;99.90;;;;;;5101522;27;20202;-77
2023/03/07 13:12:35;;;;;;;10.70;3.20;;;25.70;99.90;;;;;;5106743;28;20209;-78
2023/03/07 13:15:07;;;;;;;7.25;2.70;;;25.70;99.90;;;;;;5104339;28;20201;-78
2023/03/07 13:18:04;;;;;;;8.90;2.47;;;25.70;99.90;;;;;;5092033;28;20546;-78